Time;durP1;ratioP1;P1;durP2;ratioP2;P2;SDS_P1;SDS_P2;PMS_P1;PMS_P2;Temp;Humidity;BMP_temperature;BMP_pressure;BME280_temperature;BME280_humidity;BME280_pressure;Samples;Min_cycle;Max_cycle;Signal;HPM_P1;HPM_P2
2022/12/11 00:00:56;;;;;;;3.17;1.10;;;28.20;99.90;;;;;;4934970;29;20176;-69
2022/12/11 00:03:24;;;;;;;6.17;1.30;;;28.20;99.90;;;;;;4934915;29;20200;-69
2022/12/11 00:05:51;;;;;;;2.00;0.80;;;28.60;99.90;;;;;;4934484;29;20188;-68
2022/12/11 00:08:19;;;;;;;5.67;1.37;;;28.90;99.90;;;;;;4935092;29;20188;-68
2022/12/11 00:10:50;;;;;;;17.07;2.30;;;28.90;99.90;;;;;;4933837;29;20189;-70
2022/12/11 00:13:18;;;;;;;11.50;1.67;;;28.90;99.90;;;;;;4934355;29;20335;-68
2022/12/11 00:15:45;;;;;;;8.40;1.60;;;29.10;99.90;;;;;;4934689;29;20184;-68
2022/12/11 00:18:14;;;;;;;4.90;1.30;;;29.20;99.90;;;;;;4934576;29;20729;-71
2022/12/11 00:20:42;;;;;;;13.03;1.63;;;29.60;99.90;;;;;;4934366;29;20347;-68
2022/12/11 00:23:10;;;;;;;9.10;1.40;;;29.90;99.90;;;;;;4933462;29;20189;-67
2022/12/11 00:25:45;;;;;;;3.67;1.40;;;29.80;99.30;;;;;;4934584;29;20667;-69
2022/12/11 00:28:17;;;;;;;1.47;0.87;;;29.60;98.10;;;;;;4934408;29;20195;-68
2022/12/11 00:30:45;;;;;;;2.67;0.87;;;29.70;99.90;;;;;;4934660;29;20180;-69
2022/12/11 00:33:14;;;;;;;6.33;0.87;;;29.60;99.40;;;;;;4934506;29;20190;-69
2022/12/11 00:35:44;;;;;;;3.20;0.90;;;29.50;99.90;;;;;;4934183;29;20185;-75
2022/12/11 00:38:20;;;;;;;6.37;1.07;;;29.30;99.00;;;;;;4934469;29;20220;-68
2022/12/11 00:40:48;;;;;;;18.57;2.00;;;29.60;98.90;;;;;;4934608;29;20188;-77
2022/12/11 00:43:16;;;;;;;11.37;1.40;;;29.70;98.00;;;;;;4934240;29;20190;-68
2022/12/11 00:45:47;;;;;;;8.17;1.10;;;29.90;95.00;;;;;;4932611;29;20633;-70
2022/12/11 00:48:15;;;;;;;22.03;2.07;;;30.60;94.70;;;;;;4934519;29;20186;-69
2022/12/11 00:50:43;;;;;;;2.83;1.00;;;30.40;89.70;;;;;;4933906;29;20216;-68
2022/12/11 00:53:10;;;;;;;13.57;1.70;;;30.20;86.10;;;;;;4933751;29;20304;-68
2022/12/11 00:55:40;;;;;;;4.23;1.60;;;30.00;90.90;;;;;;4934209;29;20187;-68
2022/12/11 00:58:09;;;;;;;4.13;1.50;;;30.60;92.90;;;;;;4933221;29;20741;-69
2022/12/11 01:00:37;;;;;;;3.50;1.40;;;30.60;89.80;;;;;;4934420;29;20172;-72
2022/12/11 01:03:05;;;;;;;7.63;1.20;;;30.40;86.30;;;;;;4934442;29;20185;-70
2022/12/11 01:05:34;;;;;;;3.27;0.90;;;30.20;90.80;;;;;;4933846;29;20231;-70
2022/12/11 01:08:03;;;;;;;5.90;1.40;;;30.50;89.20;;;;;;4917505;29;20532;-69
2022/12/11 01:10:32;;;;;;;3.27;1.07;;;31.00;82.10;;;;;;4917435;29;20185;-74
2022/12/11 01:13:06;;;;;;;14.30;2.10;;;30.90;83.10;;;;;;4934005;29;20181;-71
2022/12/11 01:15:40;;;;;;;18.27;2.23;;;30.80;85.10;;;;;;4934407;29;20193;-70
2022/12/11 01:18:08;;;;;;;4.67;1.03;;;31.10;84.70;;;;;;4934283;29;20304;-71
2022/12/11 01:20:38;;;;;;;4.27;1.37;;;31.20;79.10;;;;;;4917088;29;20192;-73
2022/12/11 01:23:07;;;;;;;9.73;1.70;;;31.20;80.10;;;;;;4934385;29;20177;-70
2022/12/11 01:25:38;;;;;;;2.33;0.90;;;31.10;82.30;;;;;;4934168;29;20200;-70
2022/12/11 01:28:07;;;;;;;11.43;1.87;;;31.10;77.40;;;;;;4933791;29;20181;-70
2022/12/11 01:30:35;;;;;;;16.30;2.40;;;30.90;80.40;;;;;;4934340;29;20216;-70
2022/12/11 01:33:03;;;;;;;6.97;1.37;;;31.00;77.90;;;;;;4934068;29;20189;-71
2022/12/11 01:35:31;;;;;;;7.23;1.47;;;31.10;77.70;;;;;;4933540;29;20847;-69
2022/12/11 01:37:59;;;;;;;4.03;1.40;;;31.30;80.80;;;;;;4934298;29;20308;-70
2022/12/11 01:40:26;;;;;;;5.10;1.77;;;31.20;78.30;;;;;;4934265;29;20634;-69
2022/12/11 01:42:54;;;;;;;4.07;1.20;;;31.50;79.30;;;;;;4933603;29;20227;-69
2022/12/11 01:45:22;;;;;;;19.47;2.67;;;31.80;74.40;;;;;;4933738;29;20188;-69
2022/12/11 01:47:51;;;;;;;5.70;1.17;;;31.70;75.70;;;;;;4934051;29;20679;-68
2022/12/11 01:50:20;;;;;;;5.03;1.30;;;31.60;70.20;;;;;;4933571;29;20232;-69
2022/12/11 01:52:50;;;;;;;10.87;1.50;;;32.00;69.80;;;;;;4937012;29;20193;-75
2022/12/11 01:55:18;;;;;;;7.65;1.70;;;31.60;65.90;;;;;;4936306;29;20579;-70
2022/12/11 01:57:49;;;;;;;3.67;1.30;;;31.70;71.30;;;;;;4936627;29;20220;-75
2022/12/11 02:00:17;;;;;;;17.00;2.00;;;31.50;65.10;;;;;;4937686;29;20288;-69
2022/12/11 02:02:45;;;;;;;2.55;1.02;;;31.80;66.20;;;;;;4937605;29;20188;-69
2022/12/11 02:05:13;;;;;;;4.20;1.33;;;31.50;63.60;;;;;;4936356;29;20193;-76
2022/12/11 02:07:47;;;;;;;5.27;1.43;;;31.80;65.40;;;;;;4936884;29;20193;-71
2022/12/11 02:10:16;;;;;;;4.80;1.55;;;32.00;61.80;;;;;;4936603;29;20241;-68
2022/12/11 02:12:46;;;;;;;6.80;1.55;;;32.00;60.40;;;;;;4937648;29;20264;-68
2022/12/11 02:15:48;;;;;;;4.80;1.67;;;32.20;62.60;;;;;;4936970;29;20267;-70
2022/12/11 02:18:41;;;;;;;14.10;1.57;;;32.30;63.60;;;;;;4925621;29;20231;-73
2022/12/11 02:21:34;;;;;;;5.45;1.00;;;32.70;64.40;;;;;;4936838;29;20200;-68
2022/12/11 02:24:19;;;;;;;4.03;1.30;;;32.40;62.70;;;;;;4936970;29;20189;-69
2022/12/11 02:27:11;;;;;;;5.78;0.93;;;32.20;65.00;;;;;;4936529;29;20176;-71
2022/12/11 02:29:42;;;;;;;9.60;1.50;;;32.60;72.60;;;;;;4935847;29;20189;-70
2022/12/11 02:32:52;;;;;;;4.03;1.50;;;32.30;59.90;;;;;;4936746;29;20192;-73
2022/12/11 02:35:30;;;;;;;10.68;1.92;;;32.50;61.30;;;;;;4936659;29;20579;-71
2022/12/11 02:38:08;;;;;;;10.80;1.40;;;32.70;63.70;;;;;;4936889;29;20265;-74
2022/12/11 02:40:39;;;;;;;3.92;1.00;;;33.00;59.00;;;;;;4936038;29;20181;-70
2022/12/11 02:43:10;;;;;;;4.93;1.38;;;32.80;55.50;;;;;;4936906;29;20638;-72
2022/12/11 02:45:41;;;;;;;3.60;1.17;;;33.00;64.00;;;;;;4936609;29;20176;-69
2022/12/11 02:48:11;;;;;;;7.90;1.17;;;33.40;58.60;;;;;;4936174;29;20280;-69
2022/12/11 02:50:45;;;;;;;6.28;1.00;;;33.30;57.00;;;;;;4935990;29;20228;-70
2022/12/11 02:53:16;;;;;;;8.68;1.70;;;33.20;58.80;;;;;;4929581;29;20198;-70
2022/12/11 02:55:45;;;;;;;4.43;1.33;;;33.30;58.20;;;;;;4936201;29;20258;-70
2022/12/11 02:58:23;;;;;;;4.43;1.73;;;33.00;56.40;;;;;;4936180;29;20316;-70
2022/12/11 03:00:51;;;;;;;4.25;1.40;;;32.50;56.60;;;;;;4936221;29;20651;-70
2022/12/11 03:03:19;;;;;;;4.85;1.48;;;32.60;56.90;;;;;;4934935;29;20169;-74
2022/12/11 03:05:47;;;;;;;3.53;1.20;;;32.90;60.00;;;;;;4936362;29;20180;-68
2022/12/11 03:08:17;;;;;;;3.88;1.23;;;33.40;56.20;;;;;;4935849;29;20340;-70
2022/12/11 03:10:46;;;;;;;6.75;1.48;;;33.80;54.70;;;;;;4935681;29;20257;-72
2022/12/11 03:13:17;;;;;;;5.18;1.30;;;33.10;55.00;;;;;;4933317;29;20241;-71
2022/12/11 03:16:20;;;;;;;7.35;1.60;;;33.00;56.70;;;;;;4935070;29;20243;-69
2022/12/11 03:19:19;;;;;;;4.72;1.20;;;33.60;57.00;;;;;;4935730;29;20242;-71
2022/12/11 03:21:53;;;;;;;4.00;1.20;;;33.50;54.00;;;;;;4921308;29;20650;-69
2022/12/11 03:24:33;;;;;;;3.92;1.25;;;33.70;59.20;;;;;;4935890;29;20295;-70
2022/12/11 03:27:26;;;;;;;4.22;1.55;;;33.90;56.10;;;;;;4916443;29;20186;-70
2022/12/11 03:30:02;;;;;;;5.18;1.70;;;33.70;52.70;;;;;;4917037;29;20184;-70
2022/12/11 03:32:36;;;;;;;8.10;1.70;;;33.90;55.10;;;;;;4933537;29;20202;-70
2022/12/11 03:35:32;;;;;;;4.40;1.40;;;33.90;53.60;;;;;;4935985;29;20184;-70
2022/12/11 03:38:17;;;;;;;4.95;1.92;;;33.50;50.30;;;;;;4935209;29;20342;-69
2022/12/11 03:40:49;;;;;;;3.78;1.40;;;33.80;53.60;;;;;;4935301;29;20173;-69
2022/12/11 03:43:19;;;;;;;2.30;1.05;;;33.90;54.20;;;;;;4935721;29;20212;-69
2022/12/11 03:45:50;;;;;;;5.10;1.40;;;33.60;52.70;;;;;;4935591;29;20325;-69
2022/12/11 03:48:20;;;;;;;2.63;1.00;;;33.80;54.40;;;;;;4935254;29;20184;-69
2022/12/11 03:50:49;;;;;;;3.40;1.20;;;34.30;51.20;;;;;;4935129;29;20224;-69
2022/12/11 03:53:19;;;;;;;12.30;1.38;;;34.70;48.60;;;;;;4935485;29;20181;-77
2022/12/11 03:55:49;;;;;;;7.50;1.30;;;34.60;51.90;;;;;;4934388;29;20188;-76
2022/12/11 03:58:17;;;;;;;5.13;1.02;;;34.60;51.60;;;;;;4935412;29;20220;-69
2022/12/11 04:00:45;;;;;;;4.80;1.23;;;35.20;54.00;;;;;;4935234;29;20181;-69
2022/12/11 04:03:12;;;;;;;4.10;1.25;;;35.30;47.90;;;;;;4934785;29;20180;-76
2022/12/11 04:05:52;;;;;;;1.92;1.20;;;35.20;48.30;;;;;;4934978;29;20193;-73
2022/12/11 04:08:21;;;;;;;5.07;1.48;;;35.10;49.40;;;;;;4934606;29;20560;-75
2022/12/11 04:13:36;;;;;;;9.88;1.67;;;35.20;47.30;;;;;;4935053;29;20270;-70
2022/12/11 04:16:04;;;;;;;4.65;1.65;;;34.80;45.90;;;;;;4934947;29;20231;-70
2022/12/11 04:24:16;;;;;;;2.85;1.30;;;35.10;45.50;;;;;;4934706;29;20263;-70
2022/12/11 04:26:46;;;;;;;4.20;1.50;;;35.30;50.00;;;;;;4934395;29;20283;-70
2022/12/11 04:29:14;;;;;;;3.97;1.08;;;35.40;46.60;;;;;;4917767;29;20188;-70
2022/12/11 04:31:42;;;;;;;4.97;1.17;;;35.50;43.20;;;;;;4934278;29;20256;-74
2022/12/11 04:34:10;;;;;;;3.63;1.38;;;35.30;46.40;;;;;;4934691;29;20180;-70
2022/12/11 04:36:38;;;;;;;2.08;1.27;;;35.20;50.20;;;;;;4934248;29;20185;-70
2022/12/11 04:39:06;;;;;;;5.53;1.45;;;35.50;53.10;;;;;;4934151;29;20232;-71
2022/12/11 04:41:35;;;;;;;3.40;1.27;;;35.70;56.20;;;;;;4933784;29;20199;-70
2022/12/11 04:44:04;;;;;;;6.20;1.60;;;35.00;60.50;;;;;;4934295;29;20193;-70
2022/12/11 04:46:32;;;;;;;8.13;1.88;;;34.80;66.30;;;;;;4934019;29;20534;-70
2022/12/11 04:49:00;;;;;;;7.07;1.80;;;34.90;71.10;;;;;;4934448;29;20172;-70
2022/12/11 04:51:28;;;;;;;3.65;1.75;;;34.70;75.70;;;;;;4934527;29;20232;-70
2022/12/11 04:53:57;;;;;;;6.30;1.52;;;34.30;79.30;;;;;;4932455;29;20192;-76
2022/12/11 04:56:25;;;;;;;7.40;1.92;;;34.30;80.00;;;;;;4934544;29;20177;-71
2022/12/11 04:58:52;;;;;;;5.10;1.88;;;34.30;76.60;;;;;;4934445;29;20216;-74
2022/12/11 05:01:22;;;;;;;5.60;1.50;;;34.20;74.50;;;;;;4933904;29;20187;-70
2022/12/11 05:03:50;;;;;;;3.33;1.20;;;34.00;77.90;;;;;;4934017;29;20188;-69
2022/12/11 05:06:18;;;;;;;7.25;2.15;;;33.60;80.50;;;;;;4934196;29;20184;-69
2022/12/11 05:08:46;;;;;;;6.65;1.48;;;33.80;80.70;;;;;;4933810;29;20215;-68
2022/12/11 05:11:15;;;;;;;4.95;1.90;;;33.70;82.10;;;;;;4934058;29;20196;-71
2022/12/11 05:13:44;;;;;;;4.32;1.80;;;33.70;84.40;;;;;;4933927;29;20181;-70
2022/12/11 05:16:15;;;;;;;6.45;2.28;;;33.60;85.80;;;;;;4933980;29;20185;-69
2022/12/11 05:18:43;;;;;;;4.28;1.20;;;33.30;88.80;;;;;;4934093;29;20227;-68
2022/12/11 05:21:13;;;;;;;5.95;1.50;;;33.30;87.30;;;;;;4932980;29;20191;-75
2022/12/11 05:23:42;;;;;;;6.80;2.17;;;33.30;89.90;;;;;;4933600;29;20647;-69
2022/12/11 05:26:18;;;;;;;5.97;1.67;;;33.00;91.60;;;;;;4934987;29;20180;-68
2022/12/11 05:28:46;;;;;;;5.88;1.70;;;32.80;91.70;;;;;;4938190;29;20525;-68
2022/12/11 05:31:16;;;;;;;6.13;1.50;;;32.20;95.60;;;;;;4937462;29;20339;-70
2022/12/11 05:33:45;;;;;;;5.13;1.77;;;32.20;96.40;;;;;;4937867;29;20181;-69
2022/12/11 05:36:17;;;;;;;3.75;1.27;;;31.90;98.00;;;;;;4920753;29;20561;-73
2022/12/11 05:38:45;;;;;;;4.18;1.45;;;32.10;99.00;;;;;;4937253;29;20225;-69
2022/12/11 05:41:16;;;;;;;5.43;1.33;;;32.20;98.70;;;;;;4936498;29;20189;-71
2022/12/11 05:43:44;;;;;;;8.15;1.40;;;32.30;99.60;;;;;;4937137;29;20189;-68
2022/12/11 05:46:15;;;;;;;2.97;1.20;;;32.60;98.20;;;;;;4937029;29;20191;-73
2022/12/11 05:48:45;;;;;;;5.45;1.80;;;32.70;99.90;;;;;;4937695;29;20284;-70
2022/12/11 05:51:15;;;;;;;4.90;1.45;;;32.70;99.80;;;;;;4937448;29;20224;-68
2022/12/11 05:53:44;;;;;;;7.25;1.65;;;32.80;97.40;;;;;;4936985;29;20196;-69
2022/12/11 05:56:15;;;;;;;5.00;1.70;;;32.80;97.60;;;;;;4937634;29;20177;-69
2022/12/11 05:58:44;;;;;;;8.73;1.83;;;32.80;96.90;;;;;;4937380;29;20224;-73
2022/12/11 06:01:19;;;;;;;4.78;1.23;;;32.60;98.70;;;;;;4936997;29;20184;-68
2022/12/11 06:03:47;;;;;;;8.10;1.60;;;32.40;99.90;;;;;;4937279;29;20187;-69
2022/12/11 06:06:15;;;;;;;5.57;1.42;;;32.00;99.90;;;;;;4937174;29;20212;-71
2022/12/11 06:08:43;;;;;;;2.97;1.17;;;31.80;99.90;;;;;;4937049;29;20177;-71
2022/12/11 06:11:15;;;;;;;10.63;2.08;;;31.60;99.90;;;;;;4937246;29;20725;-72
2022/12/11 06:13:43;;;;;;;3.40;1.67;;;31.60;99.90;;;;;;4937097;29;20589;-69
2022/12/11 06:16:11;;;;;;;3.77;2.03;;;31.80;99.90;;;;;;4936793;29;20172;-70
2022/12/11 06:18:41;;;;;;;4.47;1.50;;;31.70;99.90;;;;;;4937048;29;20224;-70
2022/12/11 06:21:18;;;;;;;7.23;1.93;;;31.40;99.90;;;;;;4935678;29;20195;-69
2022/12/11 06:23:48;;;;;;;7.40;1.70;;;31.00;99.90;;;;;;4936249;29;20180;-70
2022/12/11 06:26:17;;;;;;;10.23;1.87;;;30.70;99.90;;;;;;4936878;29;20177;-70
2022/12/11 06:28:46;;;;;;;8.33;1.60;;;30.70;99.90;;;;;;4936962;29;20185;-71
2022/12/11 06:31:14;;;;;;;6.82;1.75;;;30.90;99.90;;;;;;4936222;29;20554;-69
2022/12/11 06:33:42;;;;;;;7.30;2.17;;;31.20;99.90;;;;;;4936407;29;20181;-77
2022/12/11 06:36:18;;;;;;;8.23;1.85;;;31.30;99.90;;;;;;4919864;29;20180;-76
2022/12/11 06:38:49;;;;;;;10.07;2.60;;;31.50;99.90;;;;;;4936125;29;20224;-70
2022/12/11 06:41:17;;;;;;;3.50;1.47;;;31.20;99.90;;;;;;4936746;29;20607;-70
2022/12/11 06:43:45;;;;;;;5.70;1.70;;;31.00;99.90;;;;;;4936503;29;20216;-70
2022/12/11 06:46:18;;;;;;;13.73;2.83;;;30.80;99.90;;;;;;4935731;29;20261;-70
2022/12/11 06:48:46;;;;;;;6.20;1.83;;;30.70;99.90;;;;;;4936178;29;20191;-77
2022/12/11 06:51:19;;;;;;;7.60;2.07;;;30.50;99.90;;;;;;4936141;29;20319;-72
2022/12/11 06:53:57;;;;;;;11.20;1.90;;;30.60;99.90;;;;;;4936355;29;20543;-71
2022/12/11 06:56:25;;;;;;;4.00;1.37;;;30.70;99.90;;;;;;4936463;29;20219;-70
2022/12/11 06:58:55;;;;;;;8.07;1.67;;;30.40;99.90;;;;;;4936102;29;20738;-70
2022/12/11 07:01:26;;;;;;;6.37;1.50;;;30.30;99.90;;;;;;4935860;29;20643;-71
2022/12/11 07:03:55;;;;;;;5.57;1.80;;;30.40;99.90;;;;;;4936178;29;20196;-70
2022/12/11 07:06:25;;;;;;;7.33;2.00;;;30.60;99.90;;;;;;4936328;29;20181;-70
2022/12/11 07:08:53;;;;;;;4.00;1.67;;;30.80;99.90;;;;;;4936094;29;20197;-70
2022/12/11 07:11:21;;;;;;;9.97;1.70;;;30.70;99.90;;;;;;4935786;29;20191;-68
2022/12/11 07:13:49;;;;;;;5.67;1.53;;;30.70;99.90;;;;;;4936395;29;20268;-70
2022/12/11 07:16:17;;;;;;;7.63;1.80;;;30.50;99.90;;;;;;4935953;29;20236;-69
2022/12/11 07:18:49;;;;;;;6.50;1.53;;;30.30;99.90;;;;;;4936117;29;20565;-70
2022/12/11 07:21:18;;;;;;;7.83;1.70;;;30.20;99.90;;;;;;4935797;29;20578;-68
2022/12/11 07:23:47;;;;;;;2.93;1.27;;;30.00;99.90;;;;;;4935283;29;20513;-69
2022/12/11 07:26:18;;;;;;;6.97;1.50;;;30.00;99.90;;;;;;4936637;29;20642;-69
2022/12/11 07:28:47;;;;;;;8.13;1.50;;;29.80;99.90;;;;;;4935778;29;20192;-69
2022/12/11 07:31:18;;;;;;;5.40;1.80;;;29.60;99.90;;;;;;4936549;29;20283;-70
2022/12/11 07:33:47;;;;;;;8.77;1.57;;;29.60;99.90;;;;;;4937095;29;20244;-68
2022/12/11 07:36:15;;;;;;;8.10;2.00;;;29.40;99.90;;;;;;4938897;29;20686;-70
2022/12/11 07:38:43;;;;;;;6.00;1.83;;;29.20;99.90;;;;;;4934909;29;20224;-72
2022/12/11 07:41:14;;;;;;;9.30;2.00;;;29.10;99.90;;;;;;4937997;29;20208;-68
2022/12/11 07:43:42;;;;;;;8.77;1.90;;;29.00;99.90;;;;;;4939609;29;20192;-74
2022/12/11 07:46:15;;;;;;;4.43;1.80;;;28.80;99.90;;;;;;4935277;29;20252;-69
2022/12/11 07:48:45;;;;;;;8.70;1.87;;;28.40;99.90;;;;;;4934653;29;20199;-69
2022/12/11 07:51:34;;;;;;;6.43;1.70;;;28.30;99.90;;;;;;4934445;29;20782;-70
2022/12/11 07:54:07;;;;;;;6.63;1.90;;;28.10;99.90;;;;;;4935134;29;20207;-69
2022/12/11 07:56:36;;;;;;;5.10;2.10;;;28.10;99.90;;;;;;4935659;29;20192;-70
2022/12/11 07:59:05;;;;;;;5.43;1.90;;;27.90;99.90;;;;;;4934630;29;20243;-70
2022/12/11 08:01:37;;;;;;;5.93;1.70;;;27.80;99.90;;;;;;4935029;29;20663;-77
2022/12/11 08:04:10;;;;;;;10.40;1.43;;;27.60;99.90;;;;;;4935228;29;20222;-70
2022/12/11 08:06:39;;;;;;;11.10;1.97;;;27.50;99.90;;;;;;4934532;29;20670;-70
2022/12/11 08:09:09;;;;;;;7.60;1.97;;;27.40;99.90;;;;;;4935119;29;20243;-75
2022/12/11 08:11:37;;;;;;;8.43;1.93;;;27.30;99.90;;;;;;4940042;29;20199;-79
2022/12/11 08:14:07;;;;;;;5.53;2.10;;;27.30;99.90;;;;;;4939114;29;20271;-71
2022/12/11 08:16:35;;;;;;;4.97;2.13;;;27.10;99.90;;;;;;4937184;29;20201;-69
2022/12/11 08:19:03;;;;;;;5.97;1.67;;;27.10;99.90;;;;;;4937244;29;20311;-73
2022/12/11 08:21:31;;;;;;;5.10;2.13;;;27.00;99.90;;;;;;4935235;29;20179;-70
2022/12/11 08:23:58;;;;;;;5.67;2.40;;;27.00;99.90;;;;;;4935546;29;20188;-69
2022/12/11 08:26:30;;;;;;;6.50;1.80;;;26.90;99.90;;;;;;4934573;29;20681;-69
2022/12/11 08:29:01;;;;;;;4.53;1.50;;;26.90;99.90;;;;;;4934380;29;20180;-69
2022/12/11 08:31:29;;;;;;;9.53;2.20;;;26.80;99.90;;;;;;4934736;29;20180;-68
2022/12/11 08:33:57;;;;;;;6.70;2.10;;;26.70;99.90;;;;;;4933954;29;20191;-73
2022/12/11 08:36:26;;;;;;;8.23;2.20;;;26.70;99.90;;;;;;4933003;29;20184;-70
2022/12/11 08:38:55;;;;;;;10.53;2.53;;;26.60;99.90;;;;;;4934551;29;20690;-69
2022/12/11 08:41:29;;;;;;;6.17;1.90;;;26.40;99.90;;;;;;4933745;29;20181;-70
2022/12/11 08:44:00;;;;;;;12.27;2.50;;;26.30;99.90;;;;;;4917152;29;20215;-68
2022/12/11 08:46:31;;;;;;;11.47;2.30;;;26.30;99.90;;;;;;4934342;29;20184;-68
2022/12/11 08:48:59;;;;;;;7.23;1.97;;;26.20;99.90;;;;;;4933257;29;20181;-69
2022/12/11 08:51:29;;;;;;;8.60;3.00;;;26.10;99.90;;;;;;4933916;29;20244;-69
2022/12/11 08:54:00;;;;;;;6.77;2.73;;;26.10;99.90;;;;;;4933805;29;20189;-69
2022/12/11 08:56:29;;;;;;;7.30;2.37;;;26.00;99.90;;;;;;4934340;29;20267;-69
2022/12/11 08:59:00;;;;;;;7.13;1.77;;;26.00;99.90;;;;;;4933981;29;20780;-73
2022/12/11 09:01:28;;;;;;;11.13;2.67;;;26.10;99.90;;;;;;4935296;29;20203;-70
2022/12/11 09:03:58;;;;;;;7.83;2.27;;;26.00;99.90;;;;;;4937813;29;20192;-74
2022/12/11 09:06:28;;;;;;;7.87;2.70;;;26.00;99.90;;;;;;4938030;29;20316;-70
2022/12/11 09:08:58;;;;;;;7.10;1.93;;;25.80;99.90;;;;;;4938097;29;20575;-70
2022/12/11 09:11:30;;;;;;;5.27;1.90;;;25.70;99.90;;;;;;4939139;29;20733;-70
2022/12/11 09:13:58;;;;;;;6.07;2.10;;;25.70;99.90;;;;;;4939206;29;20191;-72
2022/12/11 09:16:27;;;;;;;5.80;2.17;;;25.70;99.90;;;;;;4939265;29;20181;-69
2022/12/11 09:18:57;;;;;;;11.30;2.07;;;25.80;99.90;;;;;;4939213;29;20227;-69
2022/12/11 09:21:28;;;;;;;7.07;2.40;;;25.80;99.90;;;;;;4938944;29;20205;-77
2022/12/11 09:23:58;;;;;;;13.20;2.20;;;25.70;99.90;;;;;;4939657;29;20177;-69
2022/12/11 09:26:27;;;;;;;4.67;1.77;;;25.50;99.90;;;;;;4939085;29;20173;-68
2022/12/11 09:28:56;;;;;;;6.93;1.93;;;25.50;99.90;;;;;;4938927;29;20717;-70
2022/12/11 09:31:29;;;;;;;6.80;1.93;;;25.40;99.90;;;;;;4938794;29;20192;-69
2022/12/11 09:34:00;;;;;;;7.10;2.33;;;25.40;99.90;;;;;;4939370;29;20710;-68
2022/12/11 09:36:28;;;;;;;6.40;2.47;;;25.30;99.90;;;;;;4939401;29;20694;-70
2022/12/11 09:38:59;;;;;;;6.00;2.57;;;25.20;99.90;;;;;;4939039;29;20225;-69
2022/12/11 09:41:46;;;;;;;9.70;2.33;;;25.20;99.90;;;;;;4938868;29;20240;-69
2022/12/11 09:44:30;;;;;;;6.40;2.00;;;25.20;99.90;;;;;;4939182;29;20187;-70
2022/12/11 09:46:58;;;;;;;11.37;2.20;;;25.20;99.90;;;;;;4939493;29;20191;-76
2022/12/11 09:49:40;;;;;;;7.33;2.03;;;25.20;99.90;;;;;;4939011;29;20196;-69
2022/12/11 09:52:17;;;;;;;10.00;2.10;;;25.00;99.90;;;;;;4938529;29;20228;-79
2022/12/11 09:54:52;;;;;;;9.53;2.00;;;25.00;99.90;;;;;;4938965;29;20537;-69
2022/12/11 09:57:37;;;;;;;10.67;2.17;;;25.00;99.90;;;;;;4938985;29;20204;-69
2022/12/11 10:00:24;;;;;;;7.13;1.93;;;24.90;99.90;;;;;;4939042;29;20183;-69
2022/12/11 10:03:10;;;;;;;5.77;2.00;;;24.80;99.90;;;;;;4938548;29;20565;-69
2022/12/11 10:06:16;;;;;;;3.93;1.60;;;24.80;99.90;;;;;;4938598;29;20196;-75
2022/12/11 10:08:48;;;;;;;9.43;2.20;;;24.80;99.90;;;;;;4938763;29;20639;-70
2022/12/11 10:11:41;;;;;;;11.03;2.27;;;24.70;99.90;;;;;;4938232;29;20212;-70
2022/12/11 10:14:50;;;;;;;5.87;2.27;;;24.70;99.90;;;;;;4938839;29;20220;-70
2022/12/11 10:17:30;;;;;;;3.53;1.53;;;24.70;99.90;;;;;;4910622;29;20678;-72
2022/12/11 10:20:19;;;;;;;6.37;1.90;;;24.70;99.90;;;;;;4938138;29;20195;-70
2022/12/11 10:22:48;;;;;;;5.73;1.93;;;24.60;99.90;;;;;;4938380;29;20279;-69
2022/12/11 10:25:33;;;;;;;12.10;1.90;;;24.50;99.90;;;;;;4938500;29;20188;-79
2022/12/11 10:28:13;;;;;;;7.50;1.70;;;24.40;99.90;;;;;;4938309;29;20207;-69
2022/12/11 10:30:49;;;;;;;8.13;1.70;;;24.30;99.90;;;;;;4938313;29;20183;-69
2022/12/11 10:33:43;;;;;;;5.70;1.70;;;24.20;99.90;;;;;;4937932;29;20195;-75
2022/12/11 10:36:18;;;;;;;4.57;1.47;;;24.20;99.90;;;;;;4919696;29;20196;-70
2022/12/11 10:38:46;;;;;;;7.20;2.10;;;24.10;99.90;;;;;;4919356;29;20223;-71
2022/12/11 10:41:23;;;;;;;5.80;2.10;;;24.00;99.90;;;;;;4921578;29;20191;-77
2022/12/11 10:43:53;;;;;;;3.80;1.40;;;24.00;99.90;;;;;;4937880;29;20653;-77
2022/12/11 10:46:31;;;;;;;7.83;2.00;;;23.90;99.90;;;;;;4938034;29;20730;-69
2022/12/11 10:49:02;;;;;;;6.07;1.70;;;23.80;99.90;;;;;;4938294;29;20183;-78
2022/12/11 10:51:35;;;;;;;6.30;1.87;;;23.70;99.90;;;;;;4936072;29;20306;-69
2022/12/11 10:54:29;;;;;;;6.10;1.57;;;23.60;99.90;;;;;;4937864;29;20666;-68
2022/12/11 10:56:58;;;;;;;6.37;2.10;;;23.60;99.90;;;;;;4938511;29;20525;-68
2022/12/11 10:59:44;;;;;;;6.83;1.60;;;23.50;99.90;;;;;;4937795;29;20216;-68
2022/12/11 11:02:33;;;;;;;7.63;1.93;;;23.50;99.90;;;;;;4937480;29;20189;-69
2022/12/11 11:05:11;;;;;;;5.43;1.83;;;23.40;99.90;;;;;;4938141;29;20661;-69
2022/12/11 11:07:39;;;;;;;6.57;1.90;;;23.50;99.90;;;;;;4937639;29;20177;-69
2022/12/11 11:10:15;;;;;;;12.07;2.10;;;23.40;99.90;;;;;;4937131;29;20185;-70
2022/12/11 11:12:45;;;;;;;9.07;2.17;;;23.50;99.90;;;;;;4937284;29;20552;-69
2022/12/11 11:15:21;;;;;;;6.67;1.80;;;23.50;99.90;;;;;;4937066;29;20544;-69
2022/12/11 11:17:55;;;;;;;5.47;1.73;;;23.50;99.90;;;;;;4937187;29;20262;-73
2022/12/11 11:20:33;;;;;;;6.13;1.80;;;23.50;99.90;;;;;;4937102;29;20230;-69
2022/12/11 11:23:10;;;;;;;4.87;1.80;;;23.40;99.90;;;;;;4937033;29;20184;-69
2022/12/11 11:25:39;;;;;;;6.43;2.47;;;23.40;99.90;;;;;;4937174;29;20643;-71
2022/12/11 11:28:18;;;;;;;8.53;2.00;;;23.40;99.90;;;;;;4937095;29;20172;-69
2022/12/11 11:31:05;;;;;;;6.07;2.20;;;23.30;99.90;;;;;;4936492;29;20180;-68
2022/12/11 11:33:36;;;;;;;5.07;2.00;;;23.20;99.90;;;;;;4919416;29;20678;-77
2022/12/11 11:36:06;;;;;;;4.90;1.93;;;23.20;99.90;;;;;;4935953;29;20203;-67
2022/12/11 11:39:15;;;;;;;6.27;2.07;;;23.10;99.90;;;;;;4937173;29;20781;-69
2022/12/11 11:41:58;;;;;;;4.37;1.93;;;23.10;99.90;;;;;;4936451;29;20195;-67
2022/12/11 11:44:36;;;;;;;6.57;1.77;;;23.10;99.90;;;;;;4936602;29;20662;-68
2022/12/11 11:47:23;;;;;;;4.37;1.87;;;23.00;99.90;;;;;;4936901;29;20704;-69
2022/12/11 11:50:16;;;;;;;7.30;2.03;;;23.00;99.90;;;;;;4936968;29;20175;-68
2022/12/11 11:53:40;;;;;;;7.67;2.30;;;22.90;99.90;;;;;;4917822;29;20201;-77
2022/12/11 11:56:23;;;;;;;4.67;1.83;;;22.80;99.90;;;;;;4915592;29;20561;-69
2022/12/11 11:59:13;;;;;;;8.13;2.13;;;22.80;99.90;;;;;;4921131;29;20259;-69
2022/12/11 12:01:42;;;;;;;7.03;2.07;;;22.80;99.90;;;;;;4936422;29;20181;-69
2022/12/11 12:04:11;;;;;;;9.30;2.10;;;22.80;99.90;;;;;;4936929;29;20212;-74
2022/12/11 12:07:00;;;;;;;11.10;2.43;;;22.70;99.90;;;;;;4936397;29;20263;-69
2022/12/11 12:09:41;;;;;;;11.57;2.70;;;22.60;99.90;;;;;;4936205;29;20220;-69
2022/12/11 12:12:30;;;;;;;9.73;2.30;;;22.50;99.90;;;;;;4936309;29;20188;-69
2022/12/11 12:15:07;;;;;;;5.60;2.60;;;22.50;99.90;;;;;;4936372;29;20686;-69
2022/12/11 12:18:16;;;;;;;6.50;2.23;;;22.60;99.90;;;;;;4936100;29;20222;-69
2022/12/11 12:20:50;;;;;;;6.40;2.60;;;22.50;99.90;;;;;;4877684;29;20205;-69
2022/12/11 12:23:31;;;;;;;6.90;2.57;;;22.60;99.90;;;;;;4911505;29;20197;-69
2022/12/11 12:25:59;;;;;;;8.33;2.43;;;22.70;99.90;;;;;;4918226;29;20648;-69
2022/12/11 12:28:52;;;;;;;9.00;2.23;;;22.60;99.90;;;;;;4917409;29;20666;-71
2022/12/11 12:31:52;;;;;;;6.43;2.40;;;22.60;99.90;;;;;;4918921;29;20275;-70
2022/12/11 12:34:53;;;;;;;5.63;2.07;;;22.50;99.90;;;;;;4936016;29;20273;-69
2022/12/11 12:37:57;;;;;;;8.47;2.23;;;22.50;99.90;;;;;;4935537;29;20292;-69
2022/12/11 12:40:34;;;;;;;7.90;2.60;;;22.50;99.90;;;;;;4935686;29;20271;-75
2022/12/11 12:43:05;;;;;;;8.07;2.50;;;22.50;99.90;;;;;;4917098;29;20185;-69
2022/12/11 12:46:03;;;;;;;4.27;1.90;;;22.50;99.90;;;;;;4917376;29;20211;-68
2022/12/11 12:48:32;;;;;;;8.67;2.87;;;22.60;99.90;;;;;;4917739;29;20509;-69
2022/12/11 12:51:00;;;;;;;6.27;2.73;;;22.70;99.90;;;;;;4935071;29;20235;-70
2022/12/11 12:53:31;;;;;;;7.23;2.37;;;22.70;99.90;;;;;;4935913;29;20639;-69
2022/12/11 12:56:00;;;;;;;8.40;3.33;;;22.70;99.90;;;;;;4935890;29;20180;-73
2022/12/11 12:58:34;;;;;;;8.60;2.60;;;22.70;99.90;;;;;;4936139;29;20624;-68
2022/12/11 13:01:28;;;;;;;11.40;3.50;;;22.70;99.90;;;;;;4934888;29;20267;-69
2022/12/11 13:04:01;;;;;;;5.83;2.80;;;22.80;99.90;;;;;;4933759;29;20228;-68
2022/12/11 13:06:33;;;;;;;5.23;2.47;;;22.70;99.90;;;;;;4934491;29;20184;-76
2022/12/11 13:09:22;;;;;;;6.97;2.60;;;22.70;99.90;;;;;;4936223;29;20181;-77
2022/12/11 13:11:56;;;;;;;7.00;2.97;;;22.60;99.90;;;;;;4935578;29;20211;-69
2022/12/11 13:14:29;;;;;;;9.53;2.77;;;22.60;99.90;;;;;;4935857;29;20177;-76
2022/12/11 13:17:21;;;;;;;7.67;3.33;;;22.50;99.90;;;;;;4936386;29;20184;-69
2022/12/11 13:19:56;;;;;;;10.37;2.60;;;22.50;99.90;;;;;;4936080;29;20726;-70
2022/12/11 13:22:24;;;;;;;8.83;2.90;;;22.60;99.90;;;;;;4935556;29;20186;-68
2022/12/11 13:24:52;;;;;;;5.43;3.07;;;22.60;99.90;;;;;;4935851;29;20177;-69
2022/12/11 13:27:26;;;;;;;13.00;3.13;;;22.60;99.90;;;;;;4935626;29;20675;-68